Flight Track Log - Related Links

Times and Time Zones

All times are in EDT time to prevent confusion due to time zone crossing. See the AAL993 flight status page for this flight to view local times or setup timezone preferences in your user account.

Time Position Orientation Groundspeed Altitude Reporting Facility
EDT Latitude Longitude Course Direction KTS MPH feet Rate Location/Type
Wed 06:51:33 PM 25.7856 -80.3219 207° Southwest 174 200 1,100  Level Miami Center
Wed 06:51:45 PM 25.7850 -80.3317 266° West 176 203 1,400 1,397 Climbing Miami Center
Wed 06:52:46 PM 25.7814 -80.3950 266° West 211 243 2,800 2,000 Climbing Miami Center
Wed 06:53:48 PM 25.7142 -80.4250 202° Southwest 252 290 5,500 2,537 Climbing Miami Center
Wed 06:54:00 PM 25.5478 -80.2598 209° Southwest  Level FlightAware Approximate
Wed 06:54:49 PM 25.6381 -80.4367 188° South 273 314 8,000  Level Miami Center
Wed 06:55:00 PM 25.4453 -80.3238 209° Southwest  Level FlightAware Approximate
Wed 06:55:51 PM 25.5583 -80.4469 187° South 285 328 10,400  Level Miami Center
Wed 06:56:00 PM 25.3426 -80.3876 207° Southwest  Level FlightAware Approximate
Wed 06:56:52 PM 25.4608 -80.4608 187° South 327 376 11,900  Level Miami Center
Wed 06:57:54 PM 25.3706 -80.4719 186° South 354 407 14,200 2,244 Climbing Miami Center
Wed 06:58:55 PM 25.2708 -80.4939 191° South 364 419 16,500 2,195 Climbing Miami Center
Wed 06:59:57 PM 25.1725 -80.5381 202° Southwest 380 437 18,700 2,098 Climbing Miami Center
Wed 07:00:58 PM 25.0706 -80.5814 201° Southwest 387 445 20,800 2,098 Climbing Miami Center
Wed 07:02:00 PM 24.9444 -80.6361 201° Southwest 403 464 23,000 1,902 Climbing Miami Center
Wed 07:03:01 PM 24.8353 -80.6817 201° Southwest 413 475 24,700 1,659 Climbing Miami Center
Wed 07:04:03 PM 24.7256 -80.7317 202° Southwest 419 482 26,400 1,512 Climbing Miami Center
Wed 07:05:04 PM 24.6125 -80.7789 201° Southwest 431 496 27,800 1,268 Climbing Miami Center
Wed 07:06:06 PM 24.4967 -80.8283 201° Southwest 443 510 29,000 1,122 Climbing Miami Center
Wed 07:07:07 PM 24.3778 -80.8789 201° Southwest 453 521 30,100 1,268 Climbing Miami Center
Wed 07:08:09 PM 24.2525 -80.9339 202° Southwest 460 529 31,600 1,512 Climbing Miami Center
Wed 07:09:10 PM 24.1408 -80.9819 201° Southwest 457 526 33,200 1,610 Climbing Miami Center
Wed 07:10:12 PM 23.9997 -81.0403 201° Southwest 451 519 34,900 1,645 Climbing Miami Center
Wed 07:12:00 PM 23.8050 -81.1315 203° Southwest  Level Estimated
Wed 07:19:00 PM 23.0327 -81.4436 200° South  Level FlightAware Approximate
Wed 07:20:00 PM 22.9179 -81.4970 196° South  Level Estimated
Wed 07:21:00 PM 22.7976 -81.5335 196° South  Level FlightAware Approximate
Wed 07:22:00 PM 22.6773 -81.5698 196° South  Level FlightAware Approximate
Wed 07:23:00 PM 22.5571 -81.6061 196° South  Level FlightAware Approximate
Wed 07:24:00 PM 22.4367 -81.6424 196° South  Level FlightAware Approximate
Wed 07:25:00 PM 22.3164 -81.6785 196° South  Level FlightAware Approximate
Wed 07:26:00 PM 22.1961 -81.7147 196° South  Level FlightAware Approximate
Wed 07:27:00 PM 22.0758 -81.7507 196° South  Level FlightAware Approximate
Wed 07:28:00 PM 21.9614 -81.8049 197° South  Level Estimated
Wed 07:29:00 PM 21.8418 -81.8436 197° South  Level FlightAware Approximate
Wed 07:30:00 PM 21.7222 -81.8822 197° South  Level FlightAware Approximate
Wed 07:31:00 PM 21.6026 -81.9208 197° South  Level FlightAware Approximate
Wed 07:32:00 PM 21.4829 -81.9593 197° South  Level FlightAware Approximate
Wed 07:33:00 PM 21.3633 -81.9978 197° South  Level FlightAware Approximate
Wed 07:34:00 PM 21.2437 -82.0362 197° South  Level FlightAware Approximate
Wed 07:35:00 PM 21.1240 -82.0745 197° South  Level FlightAware Approximate
Wed 07:36:00 PM 21.0043 -82.1128 197° South  Level FlightAware Approximate
Wed 07:37:00 PM 20.8846 -82.1510 197° South  Level FlightAware Approximate
Wed 07:38:00 PM 20.7650 -82.1892 197° South  Level FlightAware Approximate
Wed 07:39:00 PM 20.6453 -82.2273 197° South  Level FlightAware Approximate
Wed 07:40:00 PM 20.5256 -82.2653 197° South  Level FlightAware Approximate
Wed 07:41:00 PM 20.4059 -82.3033 197° South  Level FlightAware Approximate
Wed 07:42:00 PM 20.2861 -82.3412 197° South  Level FlightAware Approximate
Wed 07:43:00 PM 20.1664 -82.3790 197° South  Level FlightAware Approximate
Wed 07:44:00 PM 20.0532 -82.4351 205° Southwest  Level Estimated
Wed 07:45:00 PM 19.9399 -82.4911 205° Southwest  Level FlightAware Approximate
Wed 07:46:00 PM 19.8267 -82.5470 205° Southwest  Level FlightAware Approximate
Wed 07:47:00 PM 19.7134 -82.6028 205° Southwest  Level FlightAware Approximate
Wed 07:48:00 PM 19.6000 -82.6585 205° Southwest  Level FlightAware Approximate
Wed 07:49:00 PM 19.4867 -82.7142 205° Southwest  Level FlightAware Approximate
Wed 07:50:00 PM 19.3734 -82.7698 205° Southwest  Level FlightAware Approximate
Wed 07:51:00 PM 19.2600 -82.8253 205° Southwest  Level FlightAware Approximate
Wed 07:52:00 PM 19.1466 -82.8807 205° Southwest  Level FlightAware Approximate
Wed 07:53:00 PM 19.0332 -82.9361 205° Southwest  Level FlightAware Approximate
Wed 07:54:00 PM 18.9198 -82.9914 205° Southwest  Level FlightAware Approximate
Wed 07:55:00 PM 18.8064 -83.0466 205° Southwest  Level FlightAware Approximate
Wed 07:56:00 PM 18.6929 -83.1017 205° Southwest  Level FlightAware Approximate
Wed 07:57:00 PM 18.5795 -83.1568 205° Southwest  Level FlightAware Approximate
Wed 07:58:00 PM 18.4660 -83.2117 205° Southwest  Level FlightAware Approximate
Wed 07:59:00 PM 18.3525 -83.2666 205° Southwest  Level FlightAware Approximate
Wed 08:00:00 PM 18.2390 -83.3215 205° Southwest  Level FlightAware Approximate
Wed 08:01:00 PM 18.1254 -83.3763 205° Southwest  Level FlightAware Approximate
Wed 08:02:00 PM 18.0119 -83.4309 205° Southwest  Level FlightAware Approximate
Wed 08:03:00 PM 17.8983 -83.4856 205° Southwest  Level FlightAware Approximate
Wed 08:04:00 PM 17.7848 -83.5401 205° Southwest  Level FlightAware Approximate
Wed 08:05:00 PM 17.6712 -83.5946 205° Southwest  Level FlightAware Approximate
Wed 08:06:00 PM 17.5576 -83.6490 205° Southwest  Level FlightAware Approximate
Wed 08:07:00 PM 17.4440 -83.7034 205° Southwest  Level FlightAware Approximate
Wed 08:08:00 PM 17.3303 -83.7577 205° Southwest  Level FlightAware Approximate
Wed 08:09:00 PM 17.2167 -83.8119 204° Southwest  Level FlightAware Approximate
Wed 08:10:00 PM 17.1030 -83.8660 204° Southwest  Level FlightAware Approximate
Wed 08:11:00 PM 16.9838 -83.9234 205° Southwest  Level FlightAware Approximate
Wed 08:12:00 PM 16.8704 -83.9781 205° Southwest  Level FlightAware Approximate
Wed 08:13:00 PM 16.7570 -84.0327 205° Southwest  Level FlightAware Approximate
Wed 08:14:00 PM 16.6436 -84.0873 205° Southwest  Level FlightAware Approximate
Wed 08:15:00 PM 16.5302 -84.1418 205° Southwest  Level FlightAware Approximate
Wed 08:16:00 PM 16.4167 -84.1962 205° Southwest  Level FlightAware Approximate
Wed 08:17:00 PM 16.3033 -84.2506 205° Southwest  Level FlightAware Approximate
Wed 08:18:00 PM 16.1898 -84.3049 205° Southwest  Level FlightAware Approximate
Wed 08:19:00 PM 16.0763 -84.3592 205° Southwest  Level FlightAware Approximate
Wed 08:20:00 PM 15.9628 -84.4134 205° Southwest  Level FlightAware Approximate
Wed 08:21:00 PM 15.8493 -84.4675 205° Southwest  Level FlightAware Approximate
Wed 08:22:00 PM 15.7358 -84.5216 205° Southwest  Level FlightAware Approximate
Wed 08:23:00 PM 15.6222 -84.5756 205° Southwest  Level FlightAware Approximate
Wed 08:24:00 PM 15.5087 -84.6295 205° Southwest  Level FlightAware Approximate
Wed 08:25:00 PM 15.3951 -84.6834 205° Southwest  Level FlightAware Approximate
Wed 08:26:00 PM 15.2815 -84.7373 205° Southwest  Level FlightAware Approximate
Wed 08:27:00 PM 15.1679 -84.7910 205° Southwest  Level FlightAware Approximate
Wed 08:28:00 PM 15.0543 -84.8447 205° Southwest  Level FlightAware Approximate
Wed 08:29:00 PM 14.9407 -84.8984 205° Southwest  Level FlightAware Approximate
Wed 08:30:00 PM 14.8275 -84.9529 206° Southwest  Level FlightAware Approximate
Wed 08:31:00 PM 14.7151 -85.0092 206° Southwest  Level FlightAware Approximate
Wed 08:32:00 PM 14.6026 -85.0654 206° Southwest  Level FlightAware Approximate
Wed 08:33:00 PM 14.4887 -85.1179 201° Southwest  Level FlightAware Approximate
Wed 08:34:00 PM 14.3722 -85.1645 201° Southwest  Level FlightAware Approximate
Wed 08:35:00 PM 14.2589 -85.2185 205° Southwest  Level FlightAware Approximate
Wed 08:36:00 PM 14.1456 -85.2729 205° Southwest  Level FlightAware Approximate
Wed 08:37:00 PM 14.0324 -85.3272 205° Southwest  Level FlightAware Approximate
Wed 08:38:00 PM 13.9194 -85.3820 206° Southwest  Level FlightAware Approximate
Wed 08:39:00 PM 13.8071 -85.4381 206° Southwest  Level FlightAware Approximate
Wed 08:40:00 PM 13.6923 -85.4883 200° South  Level FlightAware Approximate
Wed 08:41:00 PM 13.5767 -85.5367 206° Southwest  Level FlightAware Approximate
Wed 08:42:00 PM 13.4644 -85.5928 206° Southwest  Level FlightAware Approximate
Wed 08:43:00 PM 13.3521 -85.6489 206° Southwest  Level FlightAware Approximate
Wed 08:44:00 PM 13.2375 -85.7000 203° Southwest  Level FlightAware Approximate
Wed 08:45:00 PM 13.1229 -85.7510 203° Southwest  Level FlightAware Approximate
Wed 08:46:00 PM 13.0077 -85.8003 201° Southwest  Level FlightAware Approximate
Wed 08:47:00 PM 12.8913 -85.8468 201° Southwest  Level FlightAware Approximate
Wed 08:48:00 PM 12.7766 -85.8974 203° Southwest  Level FlightAware Approximate
Wed 08:49:00 PM 12.6614 -85.9467 202° Southwest  Level FlightAware Approximate
Wed 08:50:00 PM 12.5457 -85.9949 202° Southwest  Level FlightAware Approximate
Wed 08:51:00 PM 12.4294 -86.0416 201° Southwest  Level FlightAware Approximate
Wed 08:52:00 PM 12.3131 -86.0869 224° Southwest  Level FlightAware Approximate
Wed 08:53:00 PM 12.2001 -86.1375 194° South  Level FlightAware Approximate
Wed 08:54:00 PM 12.1500 -86.1500 194° South  Level FlightAware Approximate
Wed 08:55:00 PM 12.1415 -86.1682 194° South  Level Estimated
Wed 08:56:00 PM 12.1415 -86.1682 194° South  Level Estimated
Wed 08:57:00 PM 12.1415 -86.1682 194° South  Level Estimated
Wed 08:58:00 PM 12.1415 -86.1682 194° South  Level Estimated
Wed 08:59:00 PM 12.1415 -86.1682 194° South  Level Estimated
Wed 09:00:00 PM 12.1415 -86.1682 194° South  Level Estimated
Wed 09:01:00 PM 12.1415 -86.1682 194° South  Level Estimated
Wed 09:02:00 PM 12.1415 -86.1682 194° South  Level Estimated
Wed 09:03:00 PM 12.1415 -86.1682 194° South  Level Estimated
Wed 09:04:00 PM 12.1415 -86.1682 194° South  Level Estimated
Wed 09:05:00 PM 12.1415 -86.1682 194° South  Level Estimated
Wed 09:06:00 PM 12.1415 -86.1682 194° South  Level Estimated

Login

Don't have an account? Register now (free) for customized features, flight alerts, and more!